Terminal Aerodrome Forecast
Issued by NWS

Home | Current Version | Previous Version | Text Only | Print | Product List | Glossary On
Versions: 1 2 3 4 5 6 7 8 9 10 11 12 13 14 15 16 17 18
000
FTUS42 KMLB 012343
TAFISM
TAF
KISM 012343Z 0200/0224 09004KT P6SM FEW030 FEW060 BKN250
     FM020600 02004KT 3SM BR OVC003
      TEMPO 0209/0213 1SM BR OVC002
     FM021400 02005KT P6SM BKN010
     FM021800 04006KT P6SM SCT035
      AMD NOT SKED 0203/0212=

USA.gov is the U.S. government's official web portal to all federal, state and local government web resources and services.